Latest Weather Observations for Fort Denison

IDN60901

Issued at 11:21 am EDT Thursday 23 February 2017 (issued every 10 minutes, with the page automatically refreshed every 10 minutes)

About weather observations | Map of Sydney area stations | Latest observations for Sydney area | Other Formats
Station Details ID: 066022 Name: FORT DENISON Lat: -33.86 Lon: 151.23 Height: 5.0 m
Data from the previous 72 hours. | See also: Recent months for locations in New South Wales
Date/Time
EDT
Temp
°C
App
Temp
°C
Dew
Point
°C
Rel
Hum
%
Delta-T
°C
Wind Press
QNH
hPa
Press
MSL
hPa
Rain since
9am
mm
Dir  Spd
km/h
Gust
km/h
Spd
kts
Gust
kts
23/11:00am - - - - - E 20 22 11 12 - - -
23/10:30am - - - - - E 19 20 10 11 - - -
23/10:00am - - - - - NE 7 13 4 7 - - -
23/09:30am - - - - - NNE 11 17 6 9 - - -
23/09:00am - - - - - N 17 22 9 12 - - -
23/08:30am - - - - - NE 9 19 5 10 - - -
23/08:00am - - - - - NNE 9 17 5 9 - - -
23/07:30am - - - - - NNW 4 7 2 4 - - -
23/07:00am - - - - - N 7 13 4 7 - - -
23/06:30am - - - - - NNE 13 22 7 12 - - -
23/06:00am - - - - - NNE 15 22 8 12 - - -
23/05:30am - - - - - NNE 13 28 7 15 - - -
23/05:00am - - - - - NNE 11 19 6 10 - - -
23/04:30am - - - - - NE 13 22 7 12 - - -
23/04:00am - - - - - NE 11 22 6 12 - - -
23/03:30am - - - - - NNE 11 15 6 8 - - -
23/03:00am - - - - - NNE 9 19 5 10 - - -
23/02:30am - - - - - NNE 13 20 7 11 - - -
23/02:00am - - - - - NE 13 24 7 13 - - -
23/01:30am - - - - - NE 13 20 7 11 - - -
23/01:00am - - - - - NE 15 26 8 14 - - -
23/12:30am - - - - - NNE 15 30 8 16 - - -
23/12:00am - - - - - NE 19 33 10 18 - - -
 
Date/Time
EDT
Temp
°C
App
Temp
°C
Dew
Point
°C
Rel
Hum
%
Delta-T
°C
Wind Press
QNH
hPa
Press
MSL
hPa
Rain since
9am
mm
Dir  Spd
km/h
Gust
km/h
Spd
kts
Gust
kts
22/11:30pm - - - - - NE 20 33 11 18 - - -
22/11:00pm - - - - - NE 20 32 11 17 - - -
22/10:30pm - - - - - NE 20 35 11 19 - - -
22/10:00pm - - - - - NNE 22 32 12 17 - - -
22/09:30pm - - - - - NE 24 41 13 22 - - -
22/09:00pm - - - - - NE 22 41 12 22 - - -
22/08:30pm - - - - - NE 24 41 13 22 - - -
22/08:00pm - - - - - NE 24 39 13 21 - - -
22/07:30pm - - - - - NE 26 43 14 23 - - -
22/07:00pm - - - - - NE 28 43 15 23 - - -
22/06:30pm - - - - - NE 26 44 14 24 - - -
22/06:04pm - - - - - NE 28 48 15 26 - - -
22/06:00pm - - - - - NE 24 44 13 24 - - -
22/05:30pm - - - - - NE 26 39 14 21 - - -
22/05:00pm - - - - - NE 26 37 14 20 - - -
22/04:30pm - - - - - NE 28 43 15 23 - - -
22/04:00pm - - - - - NE 24 39 13 21 - - -
22/03:30pm - - - - - NE 24 39 13 21 - - -
22/03:11pm - - - - - NE 28 48 15 26 - - -
22/03:00pm - - - - - NE 22 37 12 20 - - -
22/02:30pm - - - - - NE 28 43 15 23 - - -
22/02:00pm - - - - - NE 26 39 14 21 - - -
22/01:39pm - - - - - NE 28 46 15 25 - - -
22/01:30pm - - - - - NE 30 44 16 24 - - -
22/01:00pm - - - - - NE 26 41 14 22 - - -
22/12:30pm - - - - - NE 26 41 14 22 - - -
22/12:00pm - - - - - NE 24 37 13 20 - - -
22/11:30am - - - - - NE 20 32 11 17 - - -
22/11:00am - - - - - NE 22 33 12 18 - - -
22/10:30am - - - - - NE 19 28 10 15 - - -
22/10:00am - - - - - NE 22 33 12 18 - - -
22/09:30am - - - - - NNE 20 30 11 16 - - -
22/09:00am - - - - - NNE 15 20 8 11 - - -
22/08:30am - - - - - NNE 9 15 5 8 - - -
22/08:00am - - - - - N 7 9 4 5 - - -
22/07:30am - - - - - N 6 9 3 5 - - -
22/07:00am - - - - - NNW 4 7 2 4 - - -
22/06:30am - - - - - NNW 2 4 1 2 - - -
22/06:00am - - - - - NNW 2 4 1 2 - - -
22/05:30am - - - - - NNW 2 4 1 2 - - -
22/05:00am - - - - - NNW 4 6 2 3 - - -
22/04:30am - - - - - N 4 4 2 2 - - -
22/04:00am - - - - - NNE 6 7 3 4 - - -
22/03:30am - - - - - NNE 7 13 4 7 - - -
22/03:00am - - - - - NNE 9 15 5 8 - - -
22/02:30am - - - - - NNE 13 20 7 11 - - -
22/02:00am - - - - - NNE 13 20 7 11 - - -
22/01:30am - - - - - NNE 15 22 8 12 - - -
22/01:00am - - - - - NNE 17 28 9 15 - - -
22/12:30am - - - - - NNE 19 26 10 14 - - -
22/12:00am - - - - - NNE 15 20 8 11 - - -
 
Date/Time
EDT
Temp
°C
App
Temp
°C
Dew
Point
°C
Rel
Hum
%
Delta-T
°C
Wind Press
QNH
hPa
Press
MSL
hPa
Rain since
9am
mm
Dir  Spd
km/h
Gust
km/h
Spd
kts
Gust
kts
21/11:30pm - - - - - NNE 17 24 9 13 - - -
21/11:00pm - - - - - NNE 17 24 9 13 - - -
21/10:30pm - - - - - NNE 17 26 9 14 - - -
21/10:00pm - - - - - NNE 20 32 11 17 - - -
21/09:30pm - - - - - NNE 17 22 9 12 - - -
21/09:00pm - - - - - NE 17 24 9 13 - - -
21/08:30pm - - - - - NE 17 26 9 14 - - -
21/08:00pm - - - - - NE 13 22 7 12 - - -
21/07:30pm - - - - - NE 15 22 8 12 - - -
21/07:00pm - - - - - NE 19 24 10 13 - - -
21/06:30pm - - - - - ENE 20 28 11 15 - - -
21/06:00pm - - - - - ENE 19 22 10 12 - - -
21/05:30pm - - - - - ENE 20 24 11 13 - - -
21/05:00pm - - - - - ESE 22 28 12 15 - - -
21/04:30pm - - - - - ESE 20 26 11 14 - - -
21/04:00pm - - - - - ESE 20 28 11 15 - - -
21/03:30pm - - - - - ESE 20 26 11 14 - - -
21/03:00pm - - - - - ESE 19 26 10 14 - - -
21/02:30pm - - - - - ESE 20 30 11 16 - - -
21/02:00pm - - - - - SE 19 24 10 13 - - -
21/01:30pm - - - - - SE 17 24 9 13 - - -
21/01:00pm - - - - - ESE 17 22 9 12 - - -
21/12:30pm - - - - - SSE 17 22 9 12 - - -
21/12:00pm - - - - - ESE 17 24 9 13 - - -
21/11:30am - - - - - ESE 13 20 7 11 - - -
21/11:00am - - - - - S 9 17 5 9 - - -
21/10:30am - - - - - WNW 6 11 3 6 - - -
21/10:00am - - - - - W 11 13 6 7 - - -
21/09:30am - - - - - WNW 15 17 8 9 - - -
21/09:00am - - - - - WNW 17 19 9 10 - - -
21/08:30am - - - - - W 15 19 8 10 - - -
21/08:00am - - - - - W 15 19 8 10 - - -
21/07:30am - - - - - W 15 20 8 11 - - -
21/07:00am - - - - - W 17 22 9 12 - - -
21/06:30am - - - - - W 17 20 9 11 - - -
21/06:00am - - - - - W 15 19 8 10 - - -
21/05:30am - - - - - W 15 17 8 9 - - -
21/05:00am - - - - - WNW 11 15 6 8 - - -
21/04:30am - - - - - W 13 17 7 9 - - -
21/04:00am - - - - - W 15 19 8 10 - - -
21/03:30am - - - - - W 9 15 5 8 - - -
21/03:00am - - - - - WSW 9 15 5 8 - - -
21/02:30am - - - - - WNW 6 11 3 6 - - -
21/02:00am - - - - - SW 4 6 2 3 - - -
21/01:30am - - - - - WSW 9 13 5 7 - - -
21/01:00am - - - - - WSW 6 11 3 6 - - -
21/12:30am - - - - - NW 4 6 2 3 - - -
21/12:00am - - - - - NNW 2 4 1 2 - - -
 
Date/Time
EDT
Temp
°C
App
Temp
°C
Dew
Point
°C
Rel
Hum
%
Delta-T
°C
Wind Press
QNH
hPa
Press
MSL
hPa
Rain since
9am
mm
Dir  Spd
km/h
Gust
km/h
Spd
kts
Gust
kts
20/11:30pm - - - - - NNW 4 6 2 3 - - -
20/11:00pm - - - - - N 4 7 2 4 - - -
20/10:30pm - - - - - NE 4 7 2 4 - - -
20/10:00pm - - - - - N 7 11 4 6 - - -
20/09:30pm - - - - - NE 4 6 2 3 - - -
20/09:00pm - - - - - NE 7 9 4 5 - - -
20/08:30pm - - - - - ENE 11 15 6 8 - - -
20/08:00pm - - - - - ENE 11 15 6 8 - - -
20/07:30pm - - - - - ENE 13 19 7 10 - - -
20/07:00pm - - - - - E 13 19 7 10 - - -
20/06:30pm - - - - - E 17 22 9 12 - - -
20/06:00pm - - - - - E 20 24 11 13 - - -
20/05:30pm - - - - - E 19 24 10 13 - - -
20/05:00pm - - - - - E 19 24 10 13 - - -
20/04:30pm - - - - - ENE 24 30 13 16 - - -
20/04:00pm - - - - - NNE 19 28 10 15 - - -
20/03:30pm - - - - - W 15 24 8 13 - - -
20/03:00pm - - - - - WNW 19 24 10 13 - - -
20/02:30pm - - - - - WNW 13 24 7 13 - - -
20/02:00pm - - - - - WSW 15 24 8 13 - - -
20/01:30pm - - - - - W 17 30 9 16 - - -
20/01:00pm - - - - - W 19 30 10 16 - - -
20/12:30pm - - - - - W 20 30 11 16 - - -
20/12:00pm - - - - - W 17 26 9 14 - - -
20/11:30am - - - - - W 28 39 15 21 - - -

Latest Capital City Observations: Canberra | Sydney | Melbourne | Brisbane | Adelaide | Perth | Hobart | Darwin

Other Formats:

Comma delimited format used in spreadsheet applications
http://www.bom.gov.au/fwo/IDN60901/IDN60901.94769.axf

JavaScript Object Notation format (JSON) in row-major order
http://www.bom.gov.au/fwo/IDN60901/IDN60901.94769.json